sensor_id;sensor_type;location;lat;lon;timestamp;pressure;altitude;pressure_sealevel;temperature;humidity
74334;BME280;62753;40.394;-80.022;2023-11-22T00:00:13;96698.39;;;8.88;60.92
74334;BME280;62753;40.394;-80.022;2023-11-22T00:02:37;96755.61;;;9.42;61.77
74334;BME280;62753;40.394;-80.022;2023-11-22T00:05:03;96764.90;;;9.61;59.55
74334;BME280;62753;40.394;-80.022;2023-11-22T00:07:28;96737.52;;;8.92;61.32
74334;BME280;62753;40.394;-80.022;2023-11-22T00:09:53;96787.06;;;9.81;59.88
74334;BME280;62753;40.394;-80.022;2023-11-22T00:12:19;96742.54;;;9.44;59.70
74334;BME280;62753;40.394;-80.022;2023-11-22T00:14:44;96740.26;;;9.09;61.61
74334;BME280;62753;40.394;-80.022;2023-11-22T00:17:10;96782.80;;;9.36;60.02
74334;BME280;62753;40.394;-80.022;2023-11-22T00:19:35;96783.35;;;10.24;57.82
74334;BME280;62753;40.394;-80.022;2023-11-22T00:22:00;96775.02;;;10.42;57.67
74334;BME280;62753;40.394;-80.022;2023-11-22T00:24:26;96774.58;;;11.01;55.62
74334;BME280;62753;40.394;-80.022;2023-11-22T00:26:51;96764.94;;;10.94;54.29
74334;BME280;62753;40.394;-80.022;2023-11-22T00:29:17;96720.72;;;11.65;53.01
74334;BME280;62753;40.394;-80.022;2023-11-22T00:31:42;96660.74;;;11.10;54.71
74334;BME280;62753;40.394;-80.022;2023-11-22T00:34:08;96645.61;;;10.29;57.31
74334;BME280;62753;40.394;-80.022;2023-11-22T00:36:33;96642.10;;;9.77;58.68
74334;BME280;62753;40.394;-80.022;2023-11-22T00:38:58;96652.90;;;10.05;58.01
74334;BME280;62753;40.394;-80.022;2023-11-22T00:41:24;96691.40;;;11.14;55.75
74334;BME280;62753;40.394;-80.022;2023-11-22T00:43:49;96727.69;;;10.69;56.23
74334;BME280;62753;40.394;-80.022;2023-11-22T00:46:15;96742.88;;;10.55;56.93
74334;BME280;62753;40.394;-80.022;2023-11-22T00:48:40;96740.39;;;10.73;55.88
74334;BME280;62753;40.394;-80.022;2023-11-22T00:51:06;96732.81;;;10.83;55.54
74334;BME280;62753;40.394;-80.022;2023-11-22T00:53:31;96711.17;;;11.50;53.38
74334;BME280;62753;40.394;-80.022;2023-11-22T00:55:57;96695.48;;;11.25;53.34
74334;BME280;62753;40.394;-80.022;2023-11-22T00:58:22;96748.24;;;12.64;50.44
74334;BME280;62753;40.394;-80.022;2023-11-22T01:00:48;96759.01;;;13.31;48.31
74334;BME280;62753;40.394;-80.022;2023-11-22T01:03:13;96722.82;;;13.61;46.24
74334;BME280;62753;40.394;-80.022;2023-11-22T01:05:38;96717.69;;;13.82;45.78
74334;BME280;62753;40.394;-80.022;2023-11-22T01:08:04;96741.54;;;12.59;47.61
74334;BME280;62753;40.394;-80.022;2023-11-22T01:10:30;96737.64;;;12.73;48.23
74334;BME280;62753;40.394;-80.022;2023-11-22T01:12:55;96722.32;;;12.14;51.01
74334;BME280;62753;40.394;-80.022;2023-11-22T01:15:20;96740.94;;;11.43;52.65
74334;BME280;62753;40.394;-80.022;2023-11-22T01:17:45;96727.71;;;11.97;51.65
74334;BME280;62753;40.394;-80.022;2023-11-22T01:20:12;96726.68;;;11.72;51.24
74334;BME280;62753;40.394;-80.022;2023-11-22T01:22:36;96732.57;;;12.48;49.12
74334;BME280;62753;40.394;-80.022;2023-11-22T01:25:02;96734.00;;;12.60;50.07
74334;BME280;62753;40.394;-80.022;2023-11-22T01:27:27;96712.52;;;12.13;50.69
74334;BME280;62753;40.394;-80.022;2023-11-22T01:29:52;96727.93;;;12.43;51.23
74334;BME280;62753;40.394;-80.022;2023-11-22T01:32:18;96732.12;;;12.21;51.13
74334;BME280;62753;40.394;-80.022;2023-11-22T01:34:43;96698.42;;;12.50;50.06
74334;BME280;62753;40.394;-80.022;2023-11-22T01:37:09;96678.98;;;12.74;50.13
74334;BME280;62753;40.394;-80.022;2023-11-22T01:39:34;96683.65;;;11.87;51.75
74334;BME280;62753;40.394;-80.022;2023-11-22T01:42:00;96692.29;;;11.93;51.97
74334;BME280;62753;40.394;-80.022;2023-11-22T01:44:25;96706.01;;;12.42;50.12
74334;BME280;62753;40.394;-80.022;2023-11-22T01:46:51;96689.22;;;12.92;49.06
74334;BME280;62753;40.394;-80.022;2023-11-22T01:49:17;96679.16;;;12.76;49.17
74334;BME280;62753;40.394;-80.022;2023-11-22T01:51:42;96693.47;;;14.02;46.90
74334;BME280;62753;40.394;-80.022;2023-11-22T01:54:08;96700.87;;;15.03;45.13
74334;BME280;62753;40.394;-80.022;2023-11-22T01:56:32;96708.39;;;15.29;43.41
74334;BME280;62753;40.394;-80.022;2023-11-22T01:58:58;96698.34;;;15.78;42.60
74334;BME280;62753;40.394;-80.022;2023-11-22T02:01:23;96688.28;;;15.72;42.03
74334;BME280;62753;40.394;-80.022;2023-11-22T02:03:48;96708.08;;;16.54;40.63
74334;BME280;62753;40.394;-80.022;2023-11-22T02:06:16;96707.16;;;16.83;39.41
74334;BME280;62753;40.394;-80.022;2023-11-22T02:08:39;96703.49;;;15.82;40.96
74334;BME280;62753;40.394;-80.022;2023-11-22T02:11:04;96706.62;;;15.05;41.86
74334;BME280;62753;40.394;-80.022;2023-11-22T02:13:30;96700.91;;;14.73;43.84
74334;BME280;62753;40.394;-80.022;2023-11-22T02:15:55;96697.03;;;15.37;42.38
74334;BME280;62753;40.394;-80.022;2023-11-22T02:18:21;96709.94;;;13.82;45.39
74334;BME280;62753;40.394;-80.022;2023-11-22T02:20:46;96714.69;;;12.91;47.78
74334;BME280;62753;40.394;-80.022;2023-11-22T02:23:12;96702.08;;;13.92;46.30
74334;BME280;62753;40.394;-80.022;2023-11-22T02:25:37;96699.87;;;13.36;47.25
74334;BME280;62753;40.394;-80.022;2023-11-22T02:28:03;96707.12;;;13.04;47.62
74334;BME280;62753;40.394;-80.022;2023-11-22T02:30:28;96704.35;;;13.36;47.45
74334;BME280;62753;40.394;-80.022;2023-11-22T02:32:54;96697.42;;;13.48;46.78
74334;BME280;62753;40.394;-80.022;2023-11-22T02:35:19;96692.75;;;14.00;45.34
74334;BME280;62753;40.394;-80.022;2023-11-22T02:37:44;96691.16;;;14.56;44.97
74334;BME280;62753;40.394;-80.022;2023-11-22T02:40:16;96693.72;;;13.72;45.92
74334;BME280;62753;40.394;-80.022;2023-11-22T02:42:35;96690.94;;;13.43;47.31
74334;BME280;62753;40.394;-80.022;2023-11-22T02:45:00;96690.96;;;12.67;48.72
74334;BME280;62753;40.394;-80.022;2023-11-22T02:47:25;96695.70;;;13.60;47.23
74334;BME280;62753;40.394;-80.022;2023-11-22T02:49:52;96688.22;;;15.26;42.93
74334;BME280;62753;40.394;-80.022;2023-11-22T02:52:17;96682.80;;;15.64;41.84
74334;BME280;62753;40.394;-80.022;2023-11-22T02:54:43;96684.24;;;14.38;43.74
74334;BME280;62753;40.394;-80.022;2023-11-22T02:57:07;96671.94;;;15.00;43.00
74334;BME280;62753;40.394;-80.022;2023-11-22T02:59:32;96668.47;;;16.73;40.14
74334;BME280;62753;40.394;-80.022;2023-11-22T03:01:58;96671.34;;;15.70;41.41
74334;BME280;62753;40.394;-80.022;2023-11-22T03:04:23;96668.71;;;16.63;39.98
74334;BME280;62753;40.394;-80.022;2023-11-22T03:06:48;96669.76;;;16.51;38.87
74334;BME280;62753;40.394;-80.022;2023-11-22T03:09:14;96671.86;;;15.53;40.92
74334;BME280;62753;40.394;-80.022;2023-11-22T03:11:40;96672.39;;;15.70;40.16
74334;BME280;62753;40.394;-80.022;2023-11-22T03:14:05;96667.34;;;15.53;41.14
74334;BME280;62753;40.394;-80.022;2023-11-22T03:16:30;96668.01;;;15.22;41.42
74334;BME280;62753;40.394;-80.022;2023-11-22T03:18:55;96667.36;;;16.66;39.33
74334;BME280;62753;40.394;-80.022;2023-11-22T03:21:21;96670.63;;;15.89;40.24
74334;BME280;62753;40.394;-80.022;2023-11-22T03:23:47;96664.91;;;15.72;41.08
74334;BME280;62753;40.394;-80.022;2023-11-22T03:26:12;96663.98;;;16.31;40.13
74334;BME280;62753;40.394;-80.022;2023-11-22T03:28:37;96658.69;;;15.68;41.23
74334;BME280;62753;40.394;-80.022;2023-11-22T03:31:02;96658.20;;;15.27;42.02
74334;BME280;62753;40.394;-80.022;2023-11-22T03:33:27;96661.05;;;15.15;42.49
74334;BME280;62753;40.394;-80.022;2023-11-22T03:35:53;96663.78;;;15.96;40.71
74334;BME280;62753;40.394;-80.022;2023-11-22T03:38:19;96659.14;;;15.17;41.77
74334;BME280;62753;40.394;-80.022;2023-11-22T03:40:44;96662.01;;;14.09;43.67
74334;BME280;62753;40.394;-80.022;2023-11-22T03:43:09;96666.16;;;14.35;44.75
74334;BME280;62753;40.394;-80.022;2023-11-22T03:45:35;96668.49;;;13.97;45.51
74334;BME280;62753;40.394;-80.022;2023-11-22T03:48:00;96670.10;;;13.81;45.64
74334;BME280;62753;40.394;-80.022;2023-11-22T03:50:25;96670.57;;;13.58;46.56
74334;BME280;62753;40.394;-80.022;2023-11-22T03:52:51;96669.30;;;13.52;46.28
74334;BME280;62753;40.394;-80.022;2023-11-22T03:55:17;96668.69;;;14.14;45.68
74334;BME280;62753;40.394;-80.022;2023-11-22T03:57:42;96667.64;;;12.88;47.79
74334;BME280;62753;40.394;-80.022;2023-11-22T04:00:08;96667.29;;;13.95;45.77
74334;BME280;62753;40.394;-80.022;2023-11-22T04:02:33;96665.22;;;13.48;46.34
74334;BME280;62753;40.394;-80.022;2023-11-22T04:04:58;96668.46;;;14.58;45.21
74334;BME280;62753;40.394;-80.022;2023-11-22T04:07:24;96665.68;;;13.40;46.99
74334;BME280;62753;40.394;-80.022;2023-11-22T04:09:49;96669.98;;;12.91;49.22
74334;BME280;62753;40.394;-80.022;2023-11-22T04:12:15;96664.07;;;12.83;49.24
74334;BME280;62753;40.394;-80.022;2023-11-22T04:14:40;96663.04;;;13.31;48.17
74334;BME280;62753;40.394;-80.022;2023-11-22T04:17:05;96660.71;;;13.00;48.29
74334;BME280;62753;40.394;-80.022;2023-11-22T04:19:31;96662.58;;;12.95;48.95
74334;BME280;62753;40.394;-80.022;2023-11-22T04:21:57;96657.31;;;13.96;47.70
74334;BME280;62753;40.394;-80.022;2023-11-22T04:24:22;96654.35;;;14.05;46.19
74334;BME280;62753;40.394;-80.022;2023-11-22T04:26:47;96651.86;;;14.32;45.74
74334;BME280;62753;40.394;-80.022;2023-11-22T04:29:12;96645.00;;;14.86;44.46
74334;BME280;62753;40.394;-80.022;2023-11-22T04:31:38;96644.62;;;14.58;45.48
74334;BME280;62753;40.394;-80.022;2023-11-22T04:34:03;96652.51;;;14.59;44.83
74334;BME280;62753;40.394;-80.022;2023-11-22T04:36:28;96655.78;;;13.31;46.71
74334;BME280;62753;40.394;-80.022;2023-11-22T04:38:53;96651.18;;;15.30;43.42
74334;BME280;62753;40.394;-80.022;2023-11-22T04:41:18;96653.53;;;14.84;44.02
74334;BME280;62753;40.394;-80.022;2023-11-22T04:43:44;96653.88;;;15.18;43.93
74334;BME280;62753;40.394;-80.022;2023-11-22T04:46:09;96653.01;;;15.03;44.30
74334;BME280;62753;40.394;-80.022;2023-11-22T04:48:34;96653.32;;;15.28;44.54
74334;BME280;62753;40.394;-80.022;2023-11-22T04:50:59;96658.17;;;14.69;46.55
74334;BME280;62753;40.394;-80.022;2023-11-22T04:53:24;96654.86;;;14.58;46.50
74334;BME280;62753;40.394;-80.022;2023-11-22T04:55:50;96657.29;;;15.10;46.07
74334;BME280;62753;40.394;-80.022;2023-11-22T04:58:15;96659.67;;;14.76;48.02
74334;BME280;62753;40.394;-80.022;2023-11-22T05:00:41;96661.62;;;14.13;49.13
74334;BME280;62753;40.394;-80.022;2023-11-22T05:03:06;96658.67;;;14.68;48.86
74334;BME280;62753;40.394;-80.022;2023-11-22T05:05:32;96658.98;;;14.70;48.12
74334;BME280;62753;40.394;-80.022;2023-11-22T05:07:57;96657.87;;;14.44;48.23
74334;BME280;62753;40.394;-80.022;2023-11-22T05:10:23;96653.82;;;15.08;47.89
74334;BME280;62753;40.394;-80.022;2023-11-22T05:12:48;96653.44;;;14.73;47.50
74334;BME280;62753;40.394;-80.022;2023-11-22T05:15:13;96656.90;;;15.29;46.99
74334;BME280;62753;40.394;-80.022;2023-11-22T05:17:38;96661.12;;;15.71;46.03
74334;BME280;62753;40.394;-80.022;2023-11-22T05:20:06;96662.94;;;15.55;46.40
74334;BME280;62753;40.394;-80.022;2023-11-22T05:22:30;96658.66;;;14.65;47.80
74334;BME280;62753;40.394;-80.022;2023-11-22T05:24:55;96656.57;;;14.84;47.66
74334;BME280;62753;40.394;-80.022;2023-11-22T05:27:21;96656.84;;;14.53;48.49
74334;BME280;62753;40.394;-80.022;2023-11-22T05:29:46;96651.47;;;15.11;47.55
74334;BME280;62753;40.394;-80.022;2023-11-22T05:32:11;96653.44;;;15.72;45.92
74334;BME280;62753;40.394;-80.022;2023-11-22T05:34:37;96648.09;;;15.51;46.11
74334;BME280;62753;40.394;-80.022;2023-11-22T05:37:02;96649.05;;;15.33;46.62
74334;BME280;62753;40.394;-80.022;2023-11-22T05:39:27;96650.42;;;16.27;45.42
74334;BME280;62753;40.394;-80.022;2023-11-22T05:41:54;96650.86;;;15.80;45.01
74334;BME280;62753;40.394;-80.022;2023-11-22T05:44:18;96643.87;;;15.96;44.48
74334;BME280;62753;40.394;-80.022;2023-11-22T05:46:43;96639.79;;;16.54;44.22
74334;BME280;62753;40.394;-80.022;2023-11-22T05:49:09;96643.45;;;16.75;43.58
74334;BME280;62753;40.394;-80.022;2023-11-22T05:51:34;96639.73;;;16.74;43.48
74334;BME280;62753;40.394;-80.022;2023-11-22T05:53:59;96642.55;;;16.57;43.77
74334;BME280;62753;40.394;-80.022;2023-11-22T05:56:24;96642.82;;;15.37;46.19
74334;BME280;62753;40.394;-80.022;2023-11-22T05:58:49;96642.85;;;16.00;45.18
74334;BME280;62753;40.394;-80.022;2023-11-22T06:01:15;96644.50;;;15.31;45.51
74334;BME280;62753;40.394;-80.022;2023-11-22T06:03:42;96644.39;;;15.66;44.84
74334;BME280;62753;40.394;-80.022;2023-11-22T06:06:06;96640.24;;;16.34;43.39
74334;BME280;62753;40.394;-80.022;2023-11-22T06:08:31;96636.06;;;15.42;46.51
74334;BME280;62753;40.394;-80.022;2023-11-22T06:10:56;96633.33;;;15.26;46.74
74334;BME280;62753;40.394;-80.022;2023-11-22T06:13:21;96633.42;;;14.64;47.53
74334;BME280;62753;40.394;-80.022;2023-11-22T06:15:46;96636.70;;;15.50;45.80
74334;BME280;62753;40.394;-80.022;2023-11-22T06:18:11;96635.55;;;16.13;45.24
74334;BME280;62753;40.394;-80.022;2023-11-22T06:20:37;96629.56;;;16.56;44.04
74334;BME280;62753;40.394;-80.022;2023-11-22T06:23:03;96624.25;;;16.51;43.79
74334;BME280;62753;40.394;-80.022;2023-11-22T06:25:28;96626.70;;;16.69;43.67
74334;BME280;62753;40.394;-80.022;2023-11-22T06:27:53;96623.86;;;17.28;42.77
74334;BME280;62753;40.394;-80.022;2023-11-22T06:30:18;96623.44;;;16.61;43.15
74334;BME280;62753;40.394;-80.022;2023-11-22T06:32:44;96623.03;;;17.35;42.91
74334;BME280;62753;40.394;-80.022;2023-11-22T06:35:09;96622.93;;;16.94;43.25
74334;BME280;62753;40.394;-80.022;2023-11-22T06:37:34;96620.24;;;17.16;42.93
74334;BME280;62753;40.394;-80.022;2023-11-22T06:39:59;96624.13;;;16.63;44.11
74334;BME280;62753;40.394;-80.022;2023-11-22T06:42:25;96621.79;;;16.35;44.34
74334;BME280;62753;40.394;-80.022;2023-11-22T06:44:51;96616.50;;;17.04;43.71
74334;BME280;62753;40.394;-80.022;2023-11-22T06:47:16;96620.39;;;15.60;45.42
74334;BME280;62753;40.394;-80.022;2023-11-22T06:49:41;96617.38;;;16.46;44.48
74334;BME280;62753;40.394;-80.022;2023-11-22T06:52:07;96613.37;;;15.69;46.36
74334;BME280;62753;40.394;-80.022;2023-11-22T06:54:32;96606.78;;;16.66;44.32
74334;BME280;62753;40.394;-80.022;2023-11-22T06:56:58;96603.90;;;16.93;42.91
74334;BME280;62753;40.394;-80.022;2023-11-22T06:59:23;96618.04;;;15.45;45.31
74334;BME280;62753;40.394;-80.022;2023-11-22T07:01:48;96615.56;;;15.41;46.36
74334;BME280;62753;40.394;-80.022;2023-11-22T07:04:13;96605.29;;;16.73;44.01
74334;BME280;62753;40.394;-80.022;2023-11-22T07:06:39;96612.00;;;15.95;45.37
74334;BME280;62753;40.394;-80.022;2023-11-22T07:09:04;96614.37;;;15.96;46.13
74334;BME280;62753;40.394;-80.022;2023-11-22T07:11:30;96614.07;;;16.02;45.14
74334;BME280;62753;40.394;-80.022;2023-11-22T07:13:55;96617.22;;;15.29;47.23
74334;BME280;62753;40.394;-80.022;2023-11-22T07:16:21;96622.84;;;15.27;47.47
74334;BME280;62753;40.394;-80.022;2023-11-22T07:18:46;96622.92;;;15.35;47.82
74334;BME280;62753;40.394;-80.022;2023-11-22T07:21:11;96630.08;;;15.77;46.36
74334;BME280;62753;40.394;-80.022;2023-11-22T07:23:36;96629.35;;;16.52;45.28
74334;BME280;62753;40.394;-80.022;2023-11-22T07:26:01;96629.99;;;16.46;45.40
74334;BME280;62753;40.394;-80.022;2023-11-22T07:28:27;96635.36;;;16.14;45.90
74334;BME280;62753;40.394;-80.022;2023-11-22T07:30:53;96631.52;;;15.23;47.57
74334;BME280;62753;40.394;-80.022;2023-11-22T07:33:17;96634.09;;;15.26;47.76
74334;BME280;62753;40.394;-80.022;2023-11-22T07:35:43;96638.14;;;15.44;48.49
74334;BME280;62753;40.394;-80.022;2023-11-22T07:38:08;96641.48;;;15.03;49.14
74334;BME280;62753;40.394;-80.022;2023-11-22T07:40:33;96645.94;;;15.24;49.06
74334;BME280;62753;40.394;-80.022;2023-11-22T07:42:59;96662.16;;;14.04;51.25
74334;BME280;62753;40.394;-80.022;2023-11-22T07:45:24;96662.36;;;13.54;50.84
74334;BME280;62753;40.394;-80.022;2023-11-22T07:47:49;96665.15;;;12.45;53.88
74334;BME280;62753;40.394;-80.022;2023-11-22T07:50:15;96665.13;;;12.50;54.18
74334;BME280;62753;40.394;-80.022;2023-11-22T07:52:40;96665.66;;;13.26;52.63
74334;BME280;62753;40.394;-80.022;2023-11-22T07:55:06;96665.00;;;13.34;52.08
74334;BME280;62753;40.394;-80.022;2023-11-22T07:57:31;96661.89;;;12.53;52.85
74334;BME280;62753;40.394;-80.022;2023-11-22T07:59:56;96658.12;;;13.28;51.19
74334;BME280;62753;40.394;-80.022;2023-11-22T08:02:22;96658.59;;;12.85;52.16
74334;BME280;62753;40.394;-80.022;2023-11-22T08:04:48;96658.78;;;13.50;51.44
74334;BME280;62753;40.394;-80.022;2023-11-22T08:07:12;96659.53;;;12.78;53.65
74334;BME280;62753;40.394;-80.022;2023-11-22T08:09:38;96665.83;;;12.82;52.73
74334;BME280;62753;40.394;-80.022;2023-11-22T08:12:04;96665.70;;;13.04;52.76
74334;BME280;62753;40.394;-80.022;2023-11-22T08:14:29;96658.89;;;13.49;51.45
74334;BME280;62753;40.394;-80.022;2023-11-22T08:16:54;96665.87;;;12.87;52.11
74334;BME280;62753;40.394;-80.022;2023-11-22T08:19:19;96660.62;;;13.37;51.18
74334;BME280;62753;40.394;-80.022;2023-11-22T08:21:45;96661.62;;;13.66;49.66
74334;BME280;62753;40.394;-80.022;2023-11-22T08:24:10;96659.82;;;13.69;49.71
74334;BME280;62753;40.394;-80.022;2023-11-22T08:26:36;96656.00;;;13.96;49.18
74334;BME280;62753;40.394;-80.022;2023-11-22T08:29:01;96652.10;;;14.09;48.08
74334;BME280;62753;40.394;-80.022;2023-11-22T08:31:26;96648.19;;;14.07;48.03
74334;BME280;62753;40.394;-80.022;2023-11-22T08:33:52;96647.75;;;14.55;46.57
74334;BME280;62753;40.394;-80.022;2023-11-22T08:36:17;96648.68;;;15.65;44.27
74334;BME280;62753;40.394;-80.022;2023-11-22T08:38:43;96652.76;;;14.62;45.42
74334;BME280;62753;40.394;-80.022;2023-11-22T08:41:09;96657.02;;;14.50;45.63
74334;BME280;62753;40.394;-80.022;2023-11-22T08:43:33;96658.28;;;13.89;47.32
74334;BME280;62753;40.394;-80.022;2023-11-22T08:45:59;96658.97;;;13.09;48.98
74334;BME280;62753;40.394;-80.022;2023-11-22T08:48:24;96654.33;;;12.78;49.21
74334;BME280;62753;40.394;-80.022;2023-11-22T08:50:49;96654.63;;;13.40;48.58
74334;BME280;62753;40.394;-80.022;2023-11-22T08:53:15;96656.95;;;12.90;48.71
74334;BME280;62753;40.394;-80.022;2023-11-22T08:55:39;96652.42;;;12.41;49.13
74334;BME280;62753;40.394;-80.022;2023-11-22T08:58:05;96654.98;;;12.99;48.54
74334;BME280;62753;40.394;-80.022;2023-11-22T09:00:31;96657.48;;;13.07;47.74
74334;BME280;62753;40.394;-80.022;2023-11-22T09:02:56;96662.45;;;12.97;48.22
74334;BME280;62753;40.394;-80.022;2023-11-22T09:05:21;96666.82;;;12.13;49.47
74334;BME280;62753;40.394;-80.022;2023-11-22T09:07:47;96665.22;;;12.56;48.64
74334;BME280;62753;40.394;-80.022;2023-11-22T09:10:12;96669.75;;;13.04;48.59
74334;BME280;62753;40.394;-80.022;2023-11-22T09:12:38;96668.76;;;11.96;49.04
74334;BME280;62753;40.394;-80.022;2023-11-22T09:15:03;96664.95;;;12.90;47.47
74334;BME280;62753;40.394;-80.022;2023-11-22T09:17:28;96674.49;;;12.45;49.03
74334;BME280;62753;40.394;-80.022;2023-11-22T09:19:54;96673.39;;;12.45;48.91
74334;BME280;62753;40.394;-80.022;2023-11-22T09:22:18;96677.45;;;12.50;49.00
74334;BME280;62753;40.394;-80.022;2023-11-22T09:24:43;96677.05;;;13.17;46.73
74334;BME280;62753;40.394;-80.022;2023-11-22T09:27:09;96681.63;;;13.60;45.65
74334;BME280;62753;40.394;-80.022;2023-11-22T09:29:35;96684.92;;;13.10;45.99
74334;BME280;62753;40.394;-80.022;2023-11-22T09:32:00;96692.51;;;13.70;44.74
74334;BME280;62753;40.394;-80.022;2023-11-22T09:34:27;96696.10;;;13.17;45.95
74334;BME280;62753;40.394;-80.022;2023-11-22T09:36:51;96698.91;;;13.18;45.58
74334;BME280;62753;40.394;-80.022;2023-11-22T09:39:17;96703.54;;;12.54;46.47
74334;BME280;62753;40.394;-80.022;2023-11-22T09:41:42;96697.72;;;13.41;45.20
74334;BME280;62753;40.394;-80.022;2023-11-22T09:44:08;96706.78;;;12.23;48.49
74334;BME280;62753;40.394;-80.022;2023-11-22T09:46:33;96710.60;;;12.72;47.29
74334;BME280;62753;40.394;-80.022;2023-11-22T09:48:59;96707.40;;;11.62;49.21
74334;BME280;62753;40.394;-80.022;2023-11-22T09:51:27;96706.09;;;10.88;50.45
74334;BME280;62753;40.394;-80.022;2023-11-22T09:53:55;96711.83;;;11.74;49.74
74334;BME280;62753;40.394;-80.022;2023-11-22T09:56:15;96714.42;;;11.60;49.82
74334;BME280;62753;40.394;-80.022;2023-11-22T09:58:42;96717.45;;;11.41;48.05
74334;BME280;62753;40.394;-80.022;2023-11-22T10:01:06;96723.16;;;12.03;47.05
74334;BME280;62753;40.394;-80.022;2023-11-22T10:03:31;96722.22;;;11.63;48.33
74334;BME280;62753;40.394;-80.022;2023-11-22T10:05:58;96725.34;;;11.55;48.74
74334;BME280;62753;40.394;-80.022;2023-11-22T10:08:22;96725.35;;;11.22;48.34
74334;BME280;62753;40.394;-80.022;2023-11-22T10:10:48;96725.61;;;11.78;46.90
74334;BME280;62753;40.394;-80.022;2023-11-22T10:13:13;96729.81;;;12.13;45.68
74334;BME280;62753;40.394;-80.022;2023-11-22T10:15:39;96733.26;;;12.56;44.70
74334;BME280;62753;40.394;-80.022;2023-11-22T10:18:04;96729.32;;;12.90;43.55
74334;BME280;62753;40.394;-80.022;2023-11-22T10:20:36;96734.23;;;12.44;44.85
74334;BME280;62753;40.394;-80.022;2023-11-22T10:22:56;96729.75;;;12.28;44.14
74334;BME280;62753;40.394;-80.022;2023-11-22T10:25:22;96731.72;;;12.33;44.80
74334;BME280;62753;40.394;-80.022;2023-11-22T10:27:47;96726.87;;;12.17;44.93
74334;BME280;62753;40.394;-80.022;2023-11-22T10:30:17;96731.63;;;11.61;45.55
74334;BME280;62753;40.394;-80.022;2023-11-22T10:32:37;96739.77;;;11.00;47.39
74334;BME280;62753;40.394;-80.022;2023-11-22T10:35:04;96747.20;;;11.66;46.98
74334;BME280;62753;40.394;-80.022;2023-11-22T10:37:34;96750.25;;;10.94;48.06
74334;BME280;62753;40.394;-80.022;2023-11-22T10:39:54;96754.04;;;11.30;47.86
74334;BME280;62753;40.394;-80.022;2023-11-22T10:42:24;96753.98;;;10.83;48.30
74334;BME280;62753;40.394;-80.022;2023-11-22T10:44:46;96748.65;;;11.23;47.17
74334;BME280;62753;40.394;-80.022;2023-11-22T10:47:11;96749.85;;;11.14;47.45
74334;BME280;62753;40.394;-80.022;2023-11-22T10:49:35;96751.19;;;11.95;46.00
74334;BME280;62753;40.394;-80.022;2023-11-22T10:52:05;96749.03;;;11.56;46.20
74334;BME280;62753;40.394;-80.022;2023-11-22T10:54:27;96758.15;;;10.93;47.73
74334;BME280;62753;40.394;-80.022;2023-11-22T10:56:55;96764.92;;;10.99;48.24
74334;BME280;62753;40.394;-80.022;2023-11-22T10:59:20;96760.51;;;10.89;47.95
74334;BME280;62753;40.394;-80.022;2023-11-22T11:01:45;96769.14;;;10.78;47.84
74334;BME280;62753;40.394;-80.022;2023-11-22T11:04:11;96764.92;;;12.17;45.52
74334;BME280;62753;40.394;-80.022;2023-11-22T11:06:36;96772.57;;;12.27;44.35
74334;BME280;62753;40.394;-80.022;2023-11-22T11:09:02;96774.02;;;12.82;43.59
74334;BME280;62753;40.394;-80.022;2023-11-22T11:11:28;96777.94;;;11.43;45.86
74334;BME280;62753;40.394;-80.022;2023-11-22T11:13:53;96776.89;;;11.65;45.60
74334;BME280;62753;40.394;-80.022;2023-11-22T11:16:18;96772.47;;;12.29;44.04
74334;BME280;62753;40.394;-80.022;2023-11-22T11:18:43;96779.76;;;12.46;43.47
74334;BME280;62753;40.394;-80.022;2023-11-22T11:21:09;96784.17;;;12.25;44.37
74334;BME280;62753;40.394;-80.022;2023-11-22T11:23:33;96783.66;;;12.10;44.74
74334;BME280;62753;40.394;-80.022;2023-11-22T11:26:09;96783.66;;;11.97;45.13
74334;BME280;62753;40.394;-80.022;2023-11-22T11:28:25;96786.32;;;11.50;45.84
74334;BME280;62753;40.394;-80.022;2023-11-22T11:30:55;96788.59;;;11.08;46.70
74334;BME280;62753;40.394;-80.022;2023-11-22T11:33:18;96793.57;;;11.26;46.55
74334;BME280;62753;40.394;-80.022;2023-11-22T11:35:43;96796.14;;;11.10;46.47
74334;BME280;62753;40.394;-80.022;2023-11-22T11:38:06;96797.36;;;11.38;46.48
74334;BME280;62753;40.394;-80.022;2023-11-22T11:40:32;96794.39;;;11.53;46.29
74334;BME280;62753;40.394;-80.022;2023-11-22T11:42:57;96797.36;;;10.78;47.24
74334;BME280;62753;40.394;-80.022;2023-11-22T11:45:28;96799.28;;;12.08;45.77
74334;BME280;62753;40.394;-80.022;2023-11-22T11:47:47;96811.00;;;11.86;44.85
74334;BME280;62753;40.394;-80.022;2023-11-22T11:50:13;96814.60;;;12.61;44.35
74334;BME280;62753;40.394;-80.022;2023-11-22T11:52:39;96816.38;;;12.63;43.26
74334;BME280;62753;40.394;-80.022;2023-11-22T11:55:05;96819.62;;;11.90;44.47
74334;BME280;62753;40.394;-80.022;2023-11-22T11:57:31;96819.91;;;11.05;46.60
74334;BME280;62753;40.394;-80.022;2023-11-22T11:59:54;96820.74;;;11.59;45.97
74334;BME280;62753;40.394;-80.022;2023-11-22T12:02:21;96828.85;;;11.18;47.13
74334;BME280;62753;40.394;-80.022;2023-11-22T12:04:46;96820.82;;;10.73;47.78
74334;BME280;62753;40.394;-80.022;2023-11-22T12:07:12;96828.35;;;11.22;47.42
74334;BME280;62753;40.394;-80.022;2023-11-22T12:09:36;96828.88;;;10.62;48.18
74334;BME280;62753;40.394;-80.022;2023-11-22T12:12:01;96830.89;;;11.06;48.03
74334;BME280;62753;40.394;-80.022;2023-11-22T12:14:27;96835.21;;;10.81;48.34
74334;BME280;62753;40.394;-80.022;2023-11-22T12:16:57;96835.78;;;10.63;48.64
74334;BME280;62753;40.394;-80.022;2023-11-22T12:19:22;96836.30;;;10.85;48.10
74334;BME280;62753;40.394;-80.022;2023-11-22T12:21:45;96839.48;;;10.68;47.68
74334;BME280;62753;40.394;-80.022;2023-11-22T12:24:09;96842.33;;;10.51;49.14
74334;BME280;62753;40.394;-80.022;2023-11-22T12:26:35;96845.75;;;11.17;47.62
74334;BME280;62753;40.394;-80.022;2023-11-22T12:29:00;96846.50;;;11.97;45.76